sensor_id;sensor_type;location;lat;lon;timestamp;temperature;humidity
46091;DHT22;31826;53.572;10.170;2023-11-22T00:01:22;2.60;99.90
46091;DHT22;31826;53.572;10.170;2023-11-22T00:03:48;2.60;99.90
46091;DHT22;31826;53.572;10.170;2023-11-22T00:06:14;2.50;99.90
46091;DHT22;31826;53.572;10.170;2023-11-22T00:08:39;2.50;99.90
46091;DHT22;31826;53.572;10.170;2023-11-22T00:11:05;2.40;99.90
46091;DHT22;31826;53.572;10.170;2023-11-22T00:13:31;2.40;99.90
46091;DHT22;31826;53.572;10.170;2023-11-22T00:15:57;2.40;99.90
46091;DHT22;31826;53.572;10.170;2023-11-22T00:18:23;2.40;99.90
46091;DHT22;31826;53.572;10.170;2023-11-22T00:20:50;2.40;99.90
46091;DHT22;31826;53.572;10.170;2023-11-22T00:23:16;2.30;99.90
46091;DHT22;31826;53.572;10.170;2023-11-22T00:25:41;2.40;99.90
46091;DHT22;31826;53.572;10.170;2023-11-22T00:28:07;2.30;99.90
46091;DHT22;31826;53.572;10.170;2023-11-22T00:30:33;2.30;99.90
46091;DHT22;31826;53.572;10.170;2023-11-22T00:32:59;2.30;99.90
46091;DHT22;31826;53.572;10.170;2023-11-22T00:35:25;2.30;99.90
46091;DHT22;31826;53.572;10.170;2023-11-22T00:37:50;2.20;99.90
46091;DHT22;31826;53.572;10.170;2023-11-22T00:40:16;2.30;99.90
46091;DHT22;31826;53.572;10.170;2023-11-22T00:42:42;2.30;99.90
46091;DHT22;31826;53.572;10.170;2023-11-22T00:45:09;2.30;99.90
46091;DHT22;31826;53.572;10.170;2023-11-22T00:47:36;2.20;99.90
46091;DHT22;31826;53.572;10.170;2023-11-22T00:50:02;2.20;99.90
46091;DHT22;31826;53.572;10.170;2023-11-22T00:52:33;2.10;99.90
46091;DHT22;31826;53.572;10.170;2023-11-22T00:54:58;2.00;99.90
46091;DHT22;31826;53.572;10.170;2023-11-22T00:57:25;2.00;99.90
46091;DHT22;31826;53.572;10.170;2023-11-22T00:59:52;2.00;99.90
46091;DHT22;31826;53.572;10.170;2023-11-22T01:02:19;2.00;99.90
46091;DHT22;31826;53.572;10.170;2023-11-22T01:04:46;1.90;99.90
46091;DHT22;31826;53.572;10.170;2023-11-22T01:07:11;1.90;99.90
46091;DHT22;31826;53.572;10.170;2023-11-22T01:09:37;1.80;99.90
46091;DHT22;31826;53.572;10.170;2023-11-22T01:12:03;1.80;99.90
46091;DHT22;31826;53.572;10.170;2023-11-22T01:14:28;1.70;99.90
46091;DHT22;31826;53.572;10.170;2023-11-22T01:16:55;1.70;99.90
46091;DHT22;31826;53.572;10.170;2023-11-22T01:19:21;1.70;99.90
46091;DHT22;31826;53.572;10.170;2023-11-22T01:21:47;1.70;99.90
46091;DHT22;31826;53.572;10.170;2023-11-22T01:24:13;1.70;99.90
46091;DHT22;31826;53.572;10.170;2023-11-22T01:26:38;1.70;99.90
46091;DHT22;31826;53.572;10.170;2023-11-22T01:29:04;1.70;99.90
46091;DHT22;31826;53.572;10.170;2023-11-22T01:31:30;1.70;99.90
46091;DHT22;31826;53.572;10.170;2023-11-22T01:34:01;1.70;99.90
46091;DHT22;31826;53.572;10.170;2023-11-22T01:36:27;1.70;99.90
46091;DHT22;31826;53.572;10.170;2023-11-22T01:38:53;1.70;99.90
46091;DHT22;31826;53.572;10.170;2023-11-22T01:41:19;1.60;99.90
46091;DHT22;31826;53.572;10.170;2023-11-22T01:43:45;1.60;99.90
46091;DHT22;31826;53.572;10.170;2023-11-22T01:46:22;1.60;99.90
46091;DHT22;31826;53.572;10.170;2023-11-22T01:48:52;1.60;99.90
46091;DHT22;31826;53.572;10.170;2023-11-22T01:51:22;1.50;99.90
46091;DHT22;31826;53.572;10.170;2023-11-22T01:53:52;1.50;99.90
46091;DHT22;31826;53.572;10.170;2023-11-22T01:56:20;1.50;99.90
46091;DHT22;31826;53.572;10.170;2023-11-22T01:58:46;1.50;99.90
46091;DHT22;31826;53.572;10.170;2023-11-22T02:01:12;1.50;99.90
46091;DHT22;31826;53.572;10.170;2023-11-22T02:03:39;1.50;99.90
46091;DHT22;31826;53.572;10.170;2023-11-22T02:06:05;1.40;99.90
46091;DHT22;31826;53.572;10.170;2023-11-22T02:08:31;1.40;99.90
46091;DHT22;31826;53.572;10.170;2023-11-22T02:11:00;1.40;99.90
46091;DHT22;31826;53.572;10.170;2023-11-22T02:13:29;1.40;99.90
46091;DHT22;31826;53.572;10.170;2023-11-22T02:15:55;1.40;99.90
46091;DHT22;31826;53.572;10.170;2023-11-22T02:18:25;1.40;99.90
46091;DHT22;31826;53.572;10.170;2023-11-22T02:20:51;1.40;99.90
46091;DHT22;31826;53.572;10.170;2023-11-22T02:23:17;1.40;99.90
46091;DHT22;31826;53.572;10.170;2023-11-22T02:25:44;1.40;99.90
46091;DHT22;31826;53.572;10.170;2023-11-22T02:28:11;1.30;99.90
46091;DHT22;31826;53.572;10.170;2023-11-22T02:30:37;1.40;99.90
46091;DHT22;31826;53.572;10.170;2023-11-22T02:33:04;1.40;99.90
46091;DHT22;31826;53.572;10.170;2023-11-22T02:35:33;1.30;99.90
46091;DHT22;31826;53.572;10.170;2023-11-22T02:37:59;1.30;99.90
46091;DHT22;31826;53.572;10.170;2023-11-22T02:40:25;1.30;99.90
46091;DHT22;31826;53.572;10.170;2023-11-22T02:42:53;1.30;99.90
46091;DHT22;31826;53.572;10.170;2023-11-22T02:45:27;1.30;99.90
46091;DHT22;31826;53.572;10.170;2023-11-22T02:47:53;1.30;99.90
46091;DHT22;31826;53.572;10.170;2023-11-22T02:50:19;1.20;99.90
46091;DHT22;31826;53.572;10.170;2023-11-22T02:52:45;1.20;99.90
46091;DHT22;31826;53.572;10.170;2023-11-22T02:55:11;1.20;99.90
46091;DHT22;31826;53.572;10.170;2023-11-22T02:57:40;1.20;99.90
46091;DHT22;31826;53.572;10.170;2023-11-22T03:00:07;1.20;99.90
46091;DHT22;31826;53.572;10.170;2023-11-22T03:02:34;1.20;99.90
46091;DHT22;31826;53.572;10.170;2023-11-22T03:04:59;1.20;99.90
46091;DHT22;31826;53.572;10.170;2023-11-22T03:07:26;1.20;99.90
46091;DHT22;31826;53.572;10.170;2023-11-22T03:09:51;1.20;99.90
46091;DHT22;31826;53.572;10.170;2023-11-22T03:12:18;1.20;99.90
46091;DHT22;31826;53.572;10.170;2023-11-22T03:14:46;1.20;99.90
46091;DHT22;31826;53.572;10.170;2023-11-22T03:17:11;1.20;99.90
46091;DHT22;31826;53.572;10.170;2023-11-22T03:19:39;1.10;99.90
46091;DHT22;31826;53.572;10.170;2023-11-22T03:22:05;1.10;99.90
46091;DHT22;31826;53.572;10.170;2023-11-22T03:24:32;1.10;99.90
46091;DHT22;31826;53.572;10.170;2023-11-22T03:27:02;1.00;99.90
46091;DHT22;31826;53.572;10.170;2023-11-22T03:29:29;1.00;99.90
46091;DHT22;31826;53.572;10.170;2023-11-22T03:31:55;0.90;99.90
46091;DHT22;31826;53.572;10.170;2023-11-22T03:34:21;0.90;99.90
46091;DHT22;31826;53.572;10.170;2023-11-22T03:36:46;1.00;99.90
46091;DHT22;31826;53.572;10.170;2023-11-22T03:39:12;1.00;99.90
46091;DHT22;31826;53.572;10.170;2023-11-22T03:41:41;1.00;99.90
46091;DHT22;31826;53.572;10.170;2023-11-22T03:44:07;1.00;99.90
46091;DHT22;31826;53.572;10.170;2023-11-22T03:46:39;1.00;99.90
46091;DHT22;31826;53.572;10.170;2023-11-22T03:49:06;1.00;99.90
46091;DHT22;31826;53.572;10.170;2023-11-22T03:51:35;1.00;99.90
46091;DHT22;31826;53.572;10.170;2023-11-22T03:54:02;1.00;99.90
46091;DHT22;31826;53.572;10.170;2023-11-22T03:56:28;1.00;99.90
46091;DHT22;31826;53.572;10.170;2023-11-22T03:58:55;1.00;99.90
46091;DHT22;31826;53.572;10.170;2023-11-22T04:01:21;1.00;99.90
46091;DHT22;31826;53.572;10.170;2023-11-22T04:03:49;1.00;99.90
46091;DHT22;31826;53.572;10.170;2023-11-22T04:06:16;0.90;99.90
46091;DHT22;31826;53.572;10.170;2023-11-22T04:08:43;0.90;99.90
46091;DHT22;31826;53.572;10.170;2023-11-22T04:11:10;0.90;99.90
46091;DHT22;31826;53.572;10.170;2023-11-22T04:13:36;0.90;99.90
46091;DHT22;31826;53.572;10.170;2023-11-22T04:16:01;0.90;99.90
46091;DHT22;31826;53.572;10.170;2023-11-22T04:18:27;0.80;99.90
46091;DHT22;31826;53.572;10.170;2023-11-22T04:20:53;0.80;99.90
46091;DHT22;31826;53.572;10.170;2023-11-22T04:23:20;0.70;99.90
46091;DHT22;31826;53.572;10.170;2023-11-22T04:25:47;0.70;99.90
46091;DHT22;31826;53.572;10.170;2023-11-22T04:28:15;0.70;99.90
46091;DHT22;31826;53.572;10.170;2023-11-22T04:30:40;0.60;99.90
46091;DHT22;31826;53.572;10.170;2023-11-22T04:33:07;0.60;99.90
46091;DHT22;31826;53.572;10.170;2023-11-22T04:35:32;0.40;99.90
46091;DHT22;31826;53.572;10.170;2023-11-22T04:38:02;0.40;99.90
46091;DHT22;31826;53.572;10.170;2023-11-22T04:40:29;0.50;99.90
46091;DHT22;31826;53.572;10.170;2023-11-22T04:42:55;0.50;99.90
46091;DHT22;31826;53.572;10.170;2023-11-22T04:45:21;0.50;99.90
46091;DHT22;31826;53.572;10.170;2023-11-22T04:47:46;0.60;99.90
46091;DHT22;31826;53.572;10.170;2023-11-22T04:50:12;0.60;99.90
46091;DHT22;31826;53.572;10.170;2023-11-22T04:52:38;0.60;99.90
46091;DHT22;31826;53.572;10.170;2023-11-22T04:55:05;0.70;99.90
46091;DHT22;31826;53.572;10.170;2023-11-22T04:57:31;0.70;99.90
46091;DHT22;31826;53.572;10.170;2023-11-22T04:59:56;0.60;99.90
46091;DHT22;31826;53.572;10.170;2023-11-22T05:02:22;0.40;99.90
46091;DHT22;31826;53.572;10.170;2023-11-22T05:04:48;0.30;99.90
46091;DHT22;31826;53.572;10.170;2023-11-22T05:07:15;0.20;99.90
46091;DHT22;31826;53.572;10.170;2023-11-22T05:09:41;0.30;99.90
46091;DHT22;31826;53.572;10.170;2023-11-22T05:12:09;0.40;99.90
46091;DHT22;31826;53.572;10.170;2023-11-22T05:14:36;0.40;99.90
46091;DHT22;31826;53.572;10.170;2023-11-22T05:17:01;0.40;99.90
46091;DHT22;31826;53.572;10.170;2023-11-22T05:19:27;0.40;99.90
46091;DHT22;31826;53.572;10.170;2023-11-22T05:21:53;0.30;99.90
46091;DHT22;31826;53.572;10.170;2023-11-22T05:24:19;0.40;99.90
46091;DHT22;31826;53.572;10.170;2023-11-22T05:26:45;0.40;99.90
46091;DHT22;31826;53.572;10.170;2023-11-22T05:29:10;0.40;99.90
46091;DHT22;31826;53.572;10.170;2023-11-22T05:31:36;0.40;99.90
46091;DHT22;31826;53.572;10.170;2023-11-22T05:34:03;0.50;99.90
46091;DHT22;31826;53.572;10.170;2023-11-22T05:36:29;0.50;99.90
46091;DHT22;31826;53.572;10.170;2023-11-22T05:38:55;0.50;99.90
46091;DHT22;31826;53.572;10.170;2023-11-22T05:41:24;0.50;99.90
46091;DHT22;31826;53.572;10.170;2023-11-22T05:43:52;0.50;99.90
46091;DHT22;31826;53.572;10.170;2023-11-22T05:46:22;0.40;99.90
46091;DHT22;31826;53.572;10.170;2023-11-22T05:48:48;0.40;99.90
46091;DHT22;31826;53.572;10.170;2023-11-22T05:51:15;0.50;99.90
46091;DHT22;31826;53.572;10.170;2023-11-22T05:53:41;0.40;99.90
46091;DHT22;31826;53.572;10.170;2023-11-22T05:56:07;0.50;99.90
46091;DHT22;31826;53.572;10.170;2023-11-22T05:58:34;0.50;99.90
46091;DHT22;31826;53.572;10.170;2023-11-22T06:01:04;0.40;99.90
46091;DHT22;31826;53.572;10.170;2023-11-22T06:03:30;0.40;99.90
46091;DHT22;31826;53.572;10.170;2023-11-22T06:05:55;0.40;99.90
46091;DHT22;31826;53.572;10.170;2023-11-22T06:08:23;0.50;99.90
46091;DHT22;31826;53.572;10.170;2023-11-22T06:10:48;0.40;99.90
46091;DHT22;31826;53.572;10.170;2023-11-22T06:13:14;0.30;99.90
46091;DHT22;31826;53.572;10.170;2023-11-22T06:15:40;0.20;99.90
46091;DHT22;31826;53.572;10.170;2023-11-22T06:18:06;0.20;99.90
46091;DHT22;31826;53.572;10.170;2023-11-22T06:20:32;0.30;99.90
46091;DHT22;31826;53.572;10.170;2023-11-22T06:22:58;0.20;99.90
46091;DHT22;31826;53.572;10.170;2023-11-22T06:25:24;0.20;99.90
46091;DHT22;31826;53.572;10.170;2023-11-22T06:27:49;0.20;99.90
46091;DHT22;31826;53.572;10.170;2023-11-22T06:30:16;0.10;99.90
46091;DHT22;31826;53.572;10.170;2023-11-22T06:32:42;0.00;99.90
46091;DHT22;31826;53.572;10.170;2023-11-22T06:35:09;0.00;99.90
46091;DHT22;31826;53.572;10.170;2023-11-22T06:37:35;0.00;99.90
46091;DHT22;31826;53.572;10.170;2023-11-22T06:40:01;0.00;99.90
46091;DHT22;31826;53.572;10.170;2023-11-22T06:42:27;0.00;99.90
46091;DHT22;31826;53.572;10.170;2023-11-22T06:44:53;0.10;99.90
46091;DHT22;31826;53.572;10.170;2023-11-22T06:47:19;0.00;99.90
46091;DHT22;31826;53.572;10.170;2023-11-22T06:52:19;0.30;99.90
46091;DHT22;31826;53.572;10.170;2023-11-22T06:54:45;0.40;99.90
46091;DHT22;31826;53.572;10.170;2023-11-22T06:57:11;0.40;99.90
46091;DHT22;31826;53.572;10.170;2023-11-22T06:59:36;0.50;99.90
46091;DHT22;31826;53.572;10.170;2023-11-22T07:02:02;0.60;99.90
46091;DHT22;31826;53.572;10.170;2023-11-22T07:04:28;0.50;99.90
46091;DHT22;31826;53.572;10.170;2023-11-22T07:06:54;0.60;99.90
46091;DHT22;31826;53.572;10.170;2023-11-22T07:09:20;0.60;99.90
46091;DHT22;31826;53.572;10.170;2023-11-22T07:11:46;0.50;99.90
46091;DHT22;31826;53.572;10.170;2023-11-22T07:14:12;0.30;99.90
46091;DHT22;31826;53.572;10.170;2023-11-22T07:16:37;0.30;99.90
46091;DHT22;31826;53.572;10.170;2023-11-22T07:19:03;0.30;99.90
46091;DHT22;31826;53.572;10.170;2023-11-22T07:21:29;0.30;99.90
46091;DHT22;31826;53.572;10.170;2023-11-22T07:23:55;0.40;99.90
46091;DHT22;31826;53.572;10.170;2023-11-22T07:26:21;0.40;99.90
46091;DHT22;31826;53.572;10.170;2023-11-22T07:28:47;0.50;99.90
46091;DHT22;31826;53.572;10.170;2023-11-22T07:31:13;0.50;99.90
46091;DHT22;31826;53.572;10.170;2023-11-22T07:33:39;0.50;99.90
46091;DHT22;31826;53.572;10.170;2023-11-22T07:36:05;0.50;99.90
46091;DHT22;31826;53.572;10.170;2023-11-22T07:38:31;0.50;99.90
46091;DHT22;31826;53.572;10.170;2023-11-22T07:40:58;0.60;99.90
46091;DHT22;31826;53.572;10.170;2023-11-22T07:43:23;0.60;99.90
46091;DHT22;31826;53.572;10.170;2023-11-22T07:45:49;0.70;99.90
46091;DHT22;31826;53.572;10.170;2023-11-22T07:48:16;0.70;99.90
46091;DHT22;31826;53.572;10.170;2023-11-22T07:50:42;0.80;99.90
46091;DHT22;31826;53.572;10.170;2023-11-22T07:53:10;0.90;99.90
46091;DHT22;31826;53.572;10.170;2023-11-22T07:55:37;0.90;99.90
46091;DHT22;31826;53.572;10.170;2023-11-22T07:58:03;1.00;99.90
46091;DHT22;31826;53.572;10.170;2023-11-22T08:00:32;1.00;99.90
46091;DHT22;31826;53.572;10.170;2023-11-22T08:02:59;1.10;99.90
46091;DHT22;31826;53.572;10.170;2023-11-22T08:05:28;1.10;99.90
46091;DHT22;31826;53.572;10.170;2023-11-22T08:07:54;1.10;99.90
46091;DHT22;31826;53.572;10.170;2023-11-22T08:10:20;1.00;99.90
46091;DHT22;31826;53.572;10.170;2023-11-22T08:12:46;1.00;99.90
46091;DHT22;31826;53.572;10.170;2023-11-22T08:15:14;1.00;99.90
46091;DHT22;31826;53.572;10.170;2023-11-22T08:17:43;0.90;99.90
46091;DHT22;31826;53.572;10.170;2023-11-22T08:20:09;0.90;99.90
46091;DHT22;31826;53.572;10.170;2023-11-22T08:22:39;0.90;99.90
46091;DHT22;31826;53.572;10.170;2023-11-22T08:25:07;0.90;99.90
46091;DHT22;31826;53.572;10.170;2023-11-22T08:27:34;1.00;99.90
46091;DHT22;31826;53.572;10.170;2023-11-22T08:29:59;1.00;99.90
46091;DHT22;31826;53.572;10.170;2023-11-22T08:32:31;1.00;99.90
46091;DHT22;31826;53.572;10.170;2023-11-22T08:34:57;1.00;99.90
46091;DHT22;31826;53.572;10.170;2023-11-22T08:37:24;1.00;99.90
46091;DHT22;31826;53.572;10.170;2023-11-22T08:39:49;1.00;99.90
46091;DHT22;31826;53.572;10.170;2023-11-22T08:42:15;1.00;99.90
46091;DHT22;31826;53.572;10.170;2023-11-22T08:44:41;1.00;99.90
46091;DHT22;31826;53.572;10.170;2023-11-22T08:47:07;1.20;99.90
46091;DHT22;31826;53.572;10.170;2023-11-22T08:49:34;1.10;99.90
46091;DHT22;31826;53.572;10.170;2023-11-22T08:52:00;1.10;99.90
46091;DHT22;31826;53.572;10.170;2023-11-22T08:54:28;1.10;99.90
46091;DHT22;31826;53.572;10.170;2023-11-22T08:56:55;1.20;99.90
46091;DHT22;31826;53.572;10.170;2023-11-22T08:59:25;1.10;99.90
46091;DHT22;31826;53.572;10.170;2023-11-22T09:01:52;1.20;99.90
46091;DHT22;31826;53.572;10.170;2023-11-22T09:04:17;1.20;99.90
46091;DHT22;31826;53.572;10.170;2023-11-22T09:06:44;1.10;99.90
46091;DHT22;31826;53.572;10.170;2023-11-22T09:09:09;1.20;99.90
46091;DHT22;31826;53.572;10.170;2023-11-22T09:11:41;1.30;99.90
46091;DHT22;31826;53.572;10.170;2023-11-22T09:14:06;1.30;99.90
46091;DHT22;31826;53.572;10.170;2023-11-22T09:16:39;1.30;99.90
46091;DHT22;31826;53.572;10.170;2023-11-22T09:19:05;1.30;99.90
46091;DHT22;31826;53.572;10.170;2023-11-22T09:21:34;1.30;99.90
46091;DHT22;31826;53.572;10.170;2023-11-22T09:24:00;1.40;99.90
46091;DHT22;31826;53.572;10.170;2023-11-22T09:26:26;1.40;99.90
46091;DHT22;31826;53.572;10.170;2023-11-22T09:28:52;1.40;99.90
46091;DHT22;31826;53.572;10.170;2023-11-22T09:31:19;1.40;99.90
46091;DHT22;31826;53.572;10.170;2023-11-22T09:33:46;1.40;99.90
46091;DHT22;31826;53.572;10.170;2023-11-22T09:36:15;1.40;99.90
46091;DHT22;31826;53.572;10.170;2023-11-22T09:38:41;1.40;99.90
46091;DHT22;31826;53.572;10.170;2023-11-22T09:41:07;1.60;99.90
46091;DHT22;31826;53.572;10.170;2023-11-22T09:43:34;1.60;99.90
46091;DHT22;31826;53.572;10.170;2023-11-22T09:45:59;1.60;99.90
46091;DHT22;31826;53.572;10.170;2023-11-22T09:48:26;1.70;99.90
46091;DHT22;31826;53.572;10.170;2023-11-22T09:51:29;1.80;99.90
46091;DHT22;31826;53.572;10.170;2023-11-22T09:54:05;1.80;99.90
46091;DHT22;31826;53.572;10.170;2023-11-22T09:56:33;1.90;99.90
46091;DHT22;31826;53.572;10.170;2023-11-22T09:59:03;1.90;99.90
46091;DHT22;31826;53.572;10.170;2023-11-22T10:01:30;2.00;99.90
46091;DHT22;31826;53.572;10.170;2023-11-22T10:03:57;2.00;99.90
46091;DHT22;31826;53.572;10.170;2023-11-22T10:06:24;2.00;99.90
46091;DHT22;31826;53.572;10.170;2023-11-22T10:08:49;2.00;99.90
46091;DHT22;31826;53.572;10.170;2023-11-22T10:11:17;2.00;99.90
46091;DHT22;31826;53.572;10.170;2023-11-22T10:13:44;2.00;99.90
46091;DHT22;31826;53.572;10.170;2023-11-22T10:16:13;2.00;99.90
46091;DHT22;31826;53.572;10.170;2023-11-22T10:18:46;2.10;99.90
46091;DHT22;31826;53.572;10.170;2023-11-22T10:21:30;2.10;99.90
46091;DHT22;31826;53.572;10.170;2023-11-22T10:23:57;2.20;99.90
46091;DHT22;31826;53.572;10.170;2023-11-22T10:26:24;2.20;99.90
46091;DHT22;31826;53.572;10.170;2023-11-22T10:28:53;2.30;99.90
46091;DHT22;31826;53.572;10.170;2023-11-22T10:31:20;2.20;99.90
46091;DHT22;31826;53.572;10.170;2023-11-22T10:33:47;2.30;99.90
46091;DHT22;31826;53.572;10.170;2023-11-22T10:36:14;2.30;99.90
46091;DHT22;31826;53.572;10.170;2023-11-22T10:38:41;2.30;99.90
46091;DHT22;31826;53.572;10.170;2023-11-22T10:41:08;2.40;99.90
46091;DHT22;31826;53.572;10.170;2023-11-22T10:43:37;2.40;99.90
46091;DHT22;31826;53.572;10.170;2023-11-22T10:46:05;2.50;99.90
46091;DHT22;31826;53.572;10.170;2023-11-22T10:48:32;2.50;99.90
46091;DHT22;31826;53.572;10.170;2023-11-22T10:51:02;2.50;99.90
46091;DHT22;31826;53.572;10.170;2023-11-22T10:53:37;2.50;99.90
46091;DHT22;31826;53.572;10.170;2023-11-22T10:56:11;2.60;99.90
46091;DHT22;31826;53.572;10.170;2023-11-22T10:58:50;2.60;99.90
46091;DHT22;31826;53.572;10.170;2023-11-22T11:01:18;2.70;99.90
46091;DHT22;31826;53.572;10.170;2023-11-22T11:04:02;2.80;99.90
46091;DHT22;31826;53.572;10.170;2023-11-22T11:06:33;2.80;99.90
46091;DHT22;31826;53.572;10.170;2023-11-22T11:09:04;2.70;99.90
46091;DHT22;31826;53.572;10.170;2023-11-22T11:11:37;2.80;99.90
46091;DHT22;31826;53.572;10.170;2023-11-22T11:14:05;2.90;99.90
46091;DHT22;31826;53.572;10.170;2023-11-22T11:16:35;2.80;99.90
46091;DHT22;31826;53.572;10.170;2023-11-22T11:19:04;2.80;99.90
46091;DHT22;31826;53.572;10.170;2023-11-22T11:21:33;2.80;99.90
46091;DHT22;31826;53.572;10.170;2023-11-22T11:23:58;2.90;99.90
46091;DHT22;31826;53.572;10.170;2023-11-22T11:26:28;2.90;99.90
46091;DHT22;31826;53.572;10.170;2023-11-22T11:28:57;2.90;99.90
46091;DHT22;31826;53.572;10.170;2023-11-22T11:31:22;2.90;99.90
46091;DHT22;31826;53.572;10.170;2023-11-22T11:36:28;2.90;99.90
46091;DHT22;31826;53.572;10.170;2023-11-22T11:38:55;2.90;99.90
46091;DHT22;31826;53.572;10.170;2023-11-22T11:41:32;3.00;99.90
46091;DHT22;31826;53.572;10.170;2023-11-22T11:43:58;3.00;99.90
46091;DHT22;31826;53.572;10.170;2023-11-22T11:46:24;3.00;99.90
46091;DHT22;31826;53.572;10.170;2023-11-22T11:48:53;3.00;99.90
46091;DHT22;31826;53.572;10.170;2023-11-22T11:51:21;3.00;99.90
46091;DHT22;31826;53.572;10.170;2023-11-22T11:53:48;3.10;99.90
46091;DHT22;31826;53.572;10.170;2023-11-22T11:56:14;3.20;99.90
46091;DHT22;31826;53.572;10.170;2023-11-22T11:58:44;3.30;99.90
46091;DHT22;31826;53.572;10.170;2023-11-22T12:01:15;3.30;99.90
46091;DHT22;31826;53.572;10.170;2023-11-22T12:03:46;3.50;99.90
46091;DHT22;31826;53.572;10.170;2023-11-22T12:06:18;3.50;99.90
46091;DHT22;31826;53.572;10.170;2023-11-22T12:08:45;3.50;99.90
46091;DHT22;31826;53.572;10.170;2023-11-22T12:11:13;3.40;99.90
46091;DHT22;31826;53.572;10.170;2023-11-22T12:13:39;3.40;99.90
46091;DHT22;31826;53.572;10.170;2023-11-22T12:16:09;3.40;99.90
46091;DHT22;31826;53.572;10.170;2023-11-22T12:18:43;3.40;99.90
46091;DHT22;31826;53.572;10.170;2023-11-22T12:21:09;3.40;99.90
46091;DHT22;31826;53.572;10.170;2023-11-22T12:23:42;3.40;99.90
46091;DHT22;31826;53.572;10.170;2023-11-22T12:26:19;3.40;99.90
46091;DHT22;31826;53.572;10.170;2023-11-22T12:28:46;3.40;99.90
46091;DHT22;31826;53.572;10.170;2023-11-22T12:31:16;3.40;99.90
46091;DHT22;31826;53.572;10.170;2023-11-22T12:33:42;3.50;99.90
46091;DHT22;31826;53.572;10.170;2023-11-22T12:36:09;3.40;99.90
46091;DHT22;31826;53.572;10.170;2023-11-22T12:38:36;3.40;99.90
46091;DHT22;31826;53.572;10.170;2023-11-22T12:41:03;3.40;99.90
46091;DHT22;31826;53.572;10.170;2023-11-22T12:43:33;3.50;99.90
46091;DHT22;31826;53.572;10.170;2023-11-22T12:46:03;3.50;99.90
46091;DHT22;31826;53.572;10.170;2023-11-22T12:48:29;3.50;99.90
46091;DHT22;31826;53.572;10.170;2023-11-22T12:50:56;3.50;99.90
46091;DHT22;31826;53.572;10.170;2023-11-22T12:53:23;3.50;99.90
46091;DHT22;31826;53.572;10.170;2023-11-22T12:55:53;3.50;99.90
46091;DHT22;31826;53.572;10.170;2023-11-22T12:58:21;3.50;99.90
46091;DHT22;31826;53.572;10.170;2023-11-22T13:00:48;3.50;99.90
46091;DHT22;31826;53.572;10.170;2023-11-22T13:03:15;3.50;99.90
46091;DHT22;31826;53.572;10.170;2023-11-22T13:05:42;3.50;99.90
46091;DHT22;31826;53.572;10.170;2023-11-22T13:08:08;3.50;99.90
46091;DHT22;31826;53.572;10.170;2023-11-22T13:10:38;3.50;99.90
46091;DHT22;31826;53.572;10.170;2023-11-22T13:13:04;3.50;99.90
46091;DHT22;31826;53.572;10.170;2023-11-22T13:15:30;3.50;99.90
46091;DHT22;31826;53.572;10.170;2023-11-22T13:17:56;3.50;99.90
46091;DHT22;31826;53.572;10.170;2023-11-22T13:20:23;3.50;99.90
46091;DHT22;31826;53.572;10.170;2023-11-22T13:22:49;3.50;99.90
46091;DHT22;31826;53.572;10.170;2023-11-22T13:25:14;3.50;99.90
46091;DHT22;31826;53.572;10.170;2023-11-22T13:27:42;3.60;99.90
46091;DHT22;31826;53.572;10.170;2023-11-22T13:30:08;3.50;99.90
46091;DHT22;31826;53.572;10.170;2023-11-22T13:32:34;3.50;99.90
46091;DHT22;31826;53.572;10.170;2023-11-22T13:35:01;3.50;99.90
46091;DHT22;31826;53.572;10.170;2023-11-22T13:37:27;3.50;99.90
46091;DHT22;31826;53.572;10.170;2023-11-22T13:39:53;3.40;99.90
46091;DHT22;31826;53.572;10.170;2023-11-22T13:42:18;3.40;99.90
46091;DHT22;31826;53.572;10.170;2023-11-22T13:44:44;3.40;99.90
46091;DHT22;31826;53.572;10.170;2023-11-22T13:47:10;3.40;99.90
46091;DHT22;31826;53.572;10.170;2023-11-22T13:49:36;3.40;99.90
46091;DHT22;31826;53.572;10.170;2023-11-22T13:52:05;3.40;99.90
46091;DHT22;31826;53.572;10.170;2023-11-22T13:54:31;3.40;99.90
46091;DHT22;31826;53.572;10.170;2023-11-22T13:57:03;3.40;99.90
46091;DHT22;31826;53.572;10.170;2023-11-22T13:59:29;3.40;99.90
46091;DHT22;31826;53.572;10.170;2023-11-22T14:01:55;3.40;99.90
46091;DHT22;31826;53.572;10.170;2023-11-22T14:04:20;3.30;99.90
46091;DHT22;31826;53.572;10.170;2023-11-22T14:06:46;3.30;99.90
46091;DHT22;31826;53.572;10.170;2023-11-22T14:09:12;3.30;99.90
46091;DHT22;31826;53.572;10.170;2023-11-22T14:11:40;3.30;99.90
46091;DHT22;31826;53.572;10.170;2023-11-22T14:14:05;3.20;99.90
46091;DHT22;31826;53.572;10.170;2023-11-22T14:16:31;3.20;99.90
46091;DHT22;31826;53.572;10.170;2023-11-22T14:18:57;3.20;99.90
46091;DHT22;31826;53.572;10.170;2023-11-22T14:21:25;3.20;99.90
46091;DHT22;31826;53.572;10.170;2023-11-22T14:23:51;3.20;99.90
46091;DHT22;31826;53.572;10.170;2023-11-22T14:26:18;3.10;99.90
46091;DHT22;31826;53.572;10.170;2023-11-22T14:28:44;3.10;99.90
46091;DHT22;31826;53.572;10.170;2023-11-22T14:31:10;3.10;99.90
46091;DHT22;31826;53.572;10.170;2023-11-22T14:33:36;3.10;99.90
46091;DHT22;31826;53.572;10.170;2023-11-22T14:36:01;3.00;99.90
46091;DHT22;31826;53.572;10.170;2023-11-22T14:38:27;3.20;99.90
46091;DHT22;31826;53.572;10.170;2023-11-22T14:40:53;3.00;99.90
46091;DHT22;31826;53.572;10.170;2023-11-22T14:43:19;2.90;99.90
46091;DHT22;31826;53.572;10.170;2023-11-22T14:45:45;3.00;99.90
46091;DHT22;31826;53.572;10.170;2023-11-22T14:48:11;2.90;99.90
46091;DHT22;31826;53.572;10.170;2023-11-22T14:50:38;2.90;99.90
46091;DHT22;31826;53.572;10.170;2023-11-22T14:53:06;2.90;99.90
46091;DHT22;31826;53.572;10.170;2023-11-22T14:55:33;2.90;99.90
46091;DHT22;31826;53.572;10.170;2023-11-22T14:58:03;2.90;99.90
46091;DHT22;31826;53.572;10.170;2023-11-22T15:00:30;2.80;99.90
46091;DHT22;31826;53.572;10.170;2023-11-22T15:02:56;2.80;99.90
46091;DHT22;31826;53.572;10.170;2023-11-22T15:05:22;2.80;99.90
46091;DHT22;31826;53.572;10.170;2023-11-22T15:07:48;2.80;99.90
46091;DHT22;31826;53.572;10.170;2023-11-22T15:10:20;2.80;99.90
46091;DHT22;31826;53.572;10.170;2023-11-22T15:12:46;2.70;99.90
46091;DHT22;31826;53.572;10.170;2023-11-22T15:15:14;2.70;99.90
46091;DHT22;31826;53.572;10.170;2023-11-22T15:17:40;2.80;99.90
46091;DHT22;31826;53.572;10.170;2023-11-22T15:20:06;2.80;99.90
46091;DHT22;31826;53.572;10.170;2023-11-22T15:22:36;2.70;99.90
46091;DHT22;31826;53.572;10.170;2023-11-22T15:25:02;2.80;99.90
46091;DHT22;31826;53.572;10.170;2023-11-22T15:27:30;2.80;99.90
46091;DHT22;31826;53.572;10.170;2023-11-22T15:29:56;2.80;99.90
46091;DHT22;31826;53.572;10.170;2023-11-22T15:32:22;2.80;99.90
46091;DHT22;31826;53.572;10.170;2023-11-22T15:34:48;2.80;99.90